Cakewalk — ZGAZ — position and weather

sailwx.info

Track history (hours):
 
Tides and Currents Weather Stations Pressure Air Temp Water Temp Dewpoint Dewpoint Depression Visibility Wind Speed Wind Dir Waves Ship Positions

Cakewalk

Last reported at 2014-Oct-28 23:22 UTC. Time now 2014-Oct-31 04:06 UTC.
Position N 35°25' W 007°32'.

Length 86 m; draft 4 m.

Type: Pleasure craft. MMSI: 319020300.

Date/timePositionNaut miles runAvg speedWind from/ knotsBaromVisibWave heightAir tempDewpointWater temp
2014-Oct-28 23:22N 35°25' W 007°32'1215.0
2014-Oct-28 22:33N 35°30' W 007°18'8914.6
2014-Oct-28 16:27N 35°57' W 005°34'1314.4
2014-Oct-28 15:33N 36°03' W 005°19'4 0.4
2014-Oct-28 07:18N 36°06' W 005°17'4 4.8
2014-Oct-28 06:33N 36°06' W 005°22'2 0.1
2014-Oct-27 15:32N 36°08' W 005°22'6 6.0
2014-Oct-27 14:33N 36°08' W 005°15'217 8.0
2014-Oct-26 11:29N 37°17' W 000°58'1111.3
2014-Oct-26 10:33N 37°23' W 000°48'1211.8
2014-Oct-26 09:30N 37°32' W 000°36'1010.1
2014-Oct-26 08:33N 37°39' W 000°29'1111.0
2014-Oct-26 07:34N 37°49' W 000°22'1211.7
2014-Oct-26 06:34N 37°59' W 000°14'9311.3
2014-Oct-25 22:20N 39°11' E 001°01'910.9
2014-Oct-25 21:31N 39°17' E 001°10'1110.8
2014-Oct-25 20:28N 39°24' E 001°21'1210.8
2014-Oct-25 19:21N 39°32' E 001°33'910.4
2014-Oct-25 18:27N 39°38' E 001°42'1010.7
2014-Oct-25 17:33N 39°45' E 001°51'1210.5
2014-Oct-25 16:26N 39°53' E 002°02'1010.5
2014-Oct-25 15:28N 39°59' E 002°12'1010.7
2014-Oct-25 14:31N 40°06' E 002°22'2612.9
2014-Oct-25 12:29N 40°24' E 002°47'1815.0
2014-Oct-25 11:18N 40°36' E 003°05'1114.9
2014-Oct-25 10:33N 40°43' E 003°16'1614.9
2014-Oct-25 09:30N 40°53' E 003°32'1614.3
2014-Oct-25 08:25N 41°03' E 003°48'1414.3
2014-Oct-25 07:26N 41°11' E 004°03'1915.0
2014-Oct-25 06:09N 41°24' E 004°22'2714.9
2014-Oct-25 04:22N 41°42' E 004°48'10215.0
2014-Oct-24 21:33N 42°50' E 006°32'1515.4
2014-Oct-24 20:33N 43°02' E 006°46'1515.2
2014-Oct-24 19:33N 43°14' E 006°58'1515.2
2014-Oct-24 18:34N 43°27' E 007°09'1514.8
2014-Oct-24 17:33N 43°38' E 007°22'6 5.9
2014-Oct-24 16:28N 43°44' E 007°26'0 0.0
2014-Oct-24 14:28N 43°44' E 007°26'0 0.0
2014-Oct-24 13:22N 43°44' E 007°26'0 0.0
2014-Oct-24 12:31N 43°44' E 007°26'0 0.0
2014-Oct-24 10:22N 43°44' E 007°26'0 0.0
2014-Oct-24 09:28N 43°44' E 007°26'  
2014-Oct-19 14:28N 43°44' E 007°26'0 0.0
2014-Oct-19 13:22N 43°44' E 007°26'  
Track history (hours):
 
Tides and Currents Weather Stations Pressure Air Temp Water Temp Dewpoint Dewpoint Depression Visibility Wind Speed Wind Dir Waves Ship Positions

Cakewalk

Last reported at 2014-Oct-28 23:22 UTC. Time now 2014-Oct-31 04:06 UTC.
Position N 35°25' W 007°32'.

Length 86 m; draft 4 m.

Type: Pleasure craft. MMSI: 319020300.

Date/timePositionNaut miles runAvg speedWind from/ knotsBaromVisibWave heightAir tempDewpointWater temp
2014-Oct-28 23:22N 35°25' W 007°32'1215.0
2014-Oct-28 22:33N 35°30' W 007°18'8914.6
2014-Oct-28 16:27N 35°57' W 005°34'1314.4
2014-Oct-28 15:33N 36°03' W 005°19'4 0.4
2014-Oct-28 07:18N 36°06' W 005°17'4 4.8
2014-Oct-28 06:33N 36°06' W 005°22'2 0.1
2014-Oct-27 15:32N 36°08' W 005°22'6 6.0
2014-Oct-27 14:33N 36°08' W 005°15'217 8.0
2014-Oct-26 11:29N 37°17' W 000°58'1111.3
2014-Oct-26 10:33N 37°23' W 000°48'1211.8
2014-Oct-26 09:30N 37°32' W 000°36'1010.1
2014-Oct-26 08:33N 37°39' W 000°29'1111.0
2014-Oct-26 07:34N 37°49' W 000°22'1211.7
2014-Oct-26 06:34N 37°59' W 000°14'9311.3
2014-Oct-25 22:20N 39°11' E 001°01'910.9
2014-Oct-25 21:31N 39°17' E 001°10'1110.8
2014-Oct-25 20:28N 39°24' E 001°21'1210.8
2014-Oct-25 19:21N 39°32' E 001°33'910.4
2014-Oct-25 18:27N 39°38' E 001°42'1010.7
2014-Oct-25 17:33N 39°45' E 001°51'1210.5
2014-Oct-25 16:26N 39°53' E 002°02'1010.5
2014-Oct-25 15:28N 39°59' E 002°12'1010.7
2014-Oct-25 14:31N 40°06' E 002°22'2612.9
2014-Oct-25 12:29N 40°24' E 002°47'1815.0
2014-Oct-25 11:18N 40°36' E 003°05'1114.9
2014-Oct-25 10:33N 40°43' E 003°16'1614.9
2014-Oct-25 09:30N 40°53' E 003°32'1614.3
2014-Oct-25 08:25N 41°03' E 003°48'1414.3
2014-Oct-25 07:26N 41°11' E 004°03'1915.0
2014-Oct-25 06:09N 41°24' E 004°22'2714.9
2014-Oct-25 04:22N 41°42' E 004°48'10215.0
2014-Oct-24 21:33N 42°50' E 006°32'1515.4
2014-Oct-24 20:33N 43°02' E 006°46'1515.2
2014-Oct-24 19:33N 43°14' E 006°58'1515.2
2014-Oct-24 18:34N 43°27' E 007°09'1514.8
2014-Oct-24 17:33N 43°38' E 007°22'6 5.9
2014-Oct-24 16:28N 43°44' E 007°26'0 0.0
2014-Oct-24 14:28N 43°44' E 007°26'0 0.0
2014-Oct-24 13:22N 43°44' E 007°26'0 0.0
2014-Oct-24 12:31N 43°44' E 007°26'0 0.0
2014-Oct-24 10:22N 43°44' E 007°26'0 0.0
2014-Oct-24 09:28N 43°44' E 007°26'  
2014-Oct-19 14:28N 43°44' E 007°26'0 0.0
2014-Oct-19 13:22N 43°44' E 007°26'  

Dump ship's entire track history